Accueil
METAR-TAF:

METAR-TAF

Aéroports :

Kwajalein, Îles Marshall

latitude: 08-43N, longitude: 167-44E, altitude: 3 m

Observation

Le bulletin a été fait il y a 19 minutes, à 14:00 UTC
Vent 14 kt de est/nord-est
Température 28°C
Humidité 79%
Pression 1010 hPa
Visibilité: 16.1 km
Nuages épars à une hauteur de 2500 ft

METAR: PKWA 121400Z AUTO 07014KT 10SM SCT025 28/24 A2983 RMK AO2 T02780238 TSNO

Heure: 02:19 (14:19 UTC)

Prévision

Le bulletin a été fait il y a 2 heures et 59 minutes, à 11:20 UTC
Prévision valable du 12 à 12 UTC au 13 à 12 UTC
Vent 14 kt de nord-est avec des rafales jusqu'à 20 kt
Visibilité: 10 km
Quelques nuages à une hauteur de 2000 ft
Nuages épars à une hauteur de 5000 ft
averses à proximité,

TAF: PKWA 121120Z 1212/1312 05014G20KT P6SM VCSH FEW020 SCT050

Observations et prévisions météorologiques de plus de 4000 aéroports (messages METAR et TAF).

Les stations disponibles sont représentées par des disques jaunes et rouges sur la carte.

Passer la souris dessus pour voir le nom de la station.

Cliquer dessus pour voir les observations et prévisions météorologiques.

Pour changer de carte: cliquez sur les boutons verts avec une croix noire pour zoomer, sur le bouton vert avec un tiret pour effectuer un zoom arrière, ou sur les flèches vertes pour les cartes adjacentes.


METAR-TAF: